Loma Rica, California
Current Conditions -  °F | °C
As of 12:28 PM on Saturday 25 Oct 2014 (Local Time) from KBAB Reporting Station
Scattered Clouds Scattered Clouds  
Wind Chill: 66°   Ceiling: Unl
Heat Index: 66°   Visibility: 10mi
Dew Point: 54°   Wind: 22mph
Humidity: 64%   Direction: 150°SSE
Pressure: 30.01"   Gusts: 28mph
Location:  39.1912°N, 121.489°W
Report Text: KBAB 251928Z AUTO 15019G24KT 10SM SCT024 19/12 A3001 RMK AO2 $
Loading
Personal Weather Stations






























Interactive Weather Map
Tropical Storm Tracking
New forecast layout! Learn more

10-Day Weather Forecast

Advertisements
Track Severe Weather on mobile